Sault, France

9:09 AM CEST on April 25, 2017 (GMT +0200)
Cliffs | | Change Station

Elev 1250 ft 43.89 °N, 5.46 °E | Updated 14 seconds ago

Clear
Clear
57.6 °F
Feels Like 57.6 °F
N
2.5
Wind Variable Wind from West
Gusts 7.4 mph

Today
High -- | Low -- °F
--% Chance of Precip.
Yesterday
High -- | Low -- °F
Precip. -- in
Pressure 29.92 in
Visibility 6.2 miles
Clouds Few 4500 ft
Mostly Cloudy 14000 ft
Dew Point 49 °F
Humidity 73%
Rainfall 0.00 in
Snow Depth Not available.
6:38 AM 8:34 PM
Waning Crescent, 2% visible
METAR LFMV 250630Z AUTO 14003KT 100V180 9999 FEW045 BKN140 12/10 Q1013 TEMPO 2500 BR BKN007
Pressure 29.92 in
Visibility 6.2 miles
Clouds Few 4500 ft
Mostly Cloudy 14000 ft
Dew Point 49 °F
Humidity 73%
Rainfall 0.00 in
Snow Depth Not available.
6:38 AM 8:34 PM
Waning Crescent, 2% visible
METAR LFMV 250630Z AUTO 14003KT 100V180 9999 FEW045 BKN140 12/10 Q1013 TEMPO 2500 BR BKN007

Get Severe Weather Alerts

Thanks for signing up!

Be on the lookout for a verification email in your inbox.

You'll start receiving the daily forecast at 8 AM.

×

10-Day Weather Forecast

×

Almanac

Astronomy

Apr. 25, 2017 Rise Set
Actual Time
Civil Twilight
Nautical Twilight
Astronomical Twilight
Moon
Length of Visible Light
Length of Day
Tomorrow will be .
, % of the Moon is Illuminated

Today's Extremes

Country Highs Country Lows

Community

WunderPhotos

WunderBlog® & News

Nearby

Air Quality

  Air Quality AQ Index Pollutant
Not available.

Snow Depth

Station Depth Elevation

Earthquake Activity

City Distance Mag. Time & Date
Minimum magnitude displayed is 2.5.

Coastal Water Temperatures

Place Temperature

Stations

Nearby Weather Stations

Station Location Temp. Windchill Dew Point Humidity Wind Precip. Elev Updated Type